FDJR

Jericho

Jericho, Swaziland
METAR FDJR 241200Z AUTO 05007G41KT //// // ////// 29/15 Q1008
Observed Flight Rules
Feb-24 @ 12:00 UTC (20 minutes ago)
Wind
50° at 7 knots
 Gusting to 41 knots
Temperatures Readings
Current 29°C / 84°F
Dewpoint 15°C / 59°F
Humidity 43%
Altimeter 29.76" Hg
Pressure 1008 hPa
Elevation 701
METAR FDJR 241200Z AUTO 05007G41KT //// // ////// 29/15 Q1008
Observed Flight Rules
Feb-24 @ 12:00 UTC
(20 minutes ago)
Wind
50° at 7 knots
 Gusting to 41 knots
Temperature Dewpoint
29°C / 84°F 15°C / 59°F
Humidity Altimeter Pressure
43% 29.76" Hg 1008 hPa